This is the latest recevied weather packets stored in our database for station/object SA6GOM-3. If no packets are shown the sender has not sent any weather packets the latest 10 day(s).
| Time | Temp. | Humidity | Pressure | Rain* | Wind** | Luminosity | Snow |
|---|---|---|---|---|---|---|---|
| 1777642536 | 19.44° C | 34% | 1026.5 hPa | - | - | - | - |
| 1777638936 | 20° C | 30% | 1027 hPa | - | - | - | - |
| 1777635336 | 21.11° C | 31% | 1027.2 hPa | - | - | - | - |
| 1777631736 | 21.11° C | 32% | 1027.4 hPa | - | - | - | - |
| 1777628136 | 22.78° C | 29% | 1027.5 hPa | - | - | - | - |
| 1777624536 | 28.33° C | 23% | 1027.4 hPa | - | - | - | - |
| 1777620936 | 23.33° C | 32% | 1027.4 hPa | - | - | - | - |
| 1777617336 | 26.11° C | 32% | 1027.5 hPa | - | - | - | - |
| 1777613736 | 25° C | 34% | 1027.3 hPa | - | - | - | - |
| 1777610136 | 18.89° C | 47% | 1027.4 hPa | - | - | - | - |
| 1777606536 | 5° C | 83% | 1027.7 hPa | - | - | - | - |
| 1777602935 | 5.56° C | 82% | 1027.9 hPa | - | - | - | - |
| 1777599336 | 6.11° C | 81% | 1028.1 hPa | - | - | - | - |
| 1777595735 | 6.11° C | 83% | 1028.2 hPa | - | - | - | - |
| 1777592135 | 7.22° C | 81% | 1028.6 hPa | - | - | - | - |
| 1777588535 | 4.44° C | 82% | 1028.8 hPa | - | - | - | - |
| 1777584935 | 5.56° C | 81% | 1028.9 hPa | - | - | - | - |
| 1777581335 | 5.56° C | 80% | 1029.1 hPa | - | - | - | - |
| 1777577735 | 6.11° C | 78% | 1029.4 hPa | - | - | - | - |
| 1777574135 | 7.22° C | 75% | 1029.2 hPa | - | - | - | - |
| 1777570535 | 9.44° C | 70% | 1029.2 hPa | - | - | - | - |
| 1777566935 | 11.11° C | 67% | 1029.2 hPa | - | - | - | - |
| 1777563335 | 12.78° C | 60% | 1029.5 hPa | - | - | - | - |
| 1777559734 | 13.89° C | 58% | 1029.8 hPa | - | - | - | - |
| 1777556134 | 15.56° C | 55% | 1030.1 hPa | - | - | - | - |
* Rain since midnight (hover to see other rain measurements)
** Current wind speed in m/s (hover to see current wind gust speed)